Latest Coastal Weather Observations for Mornington Island Airport

IDQ60701

Issued at 7:32 am EST Saturday 30 July 2016 (issued every 10 minutes, with the page automatically refreshed every 10 minutes)

About coastal observations | Map of coastal stations | Coastal observations for QLD | Marine services | Other Formats
Station Details ID: 029182 Name: MORNINGTON ISLAND AIRPORT Lat: -16.66 Lon: 139.17 Height: 9.0 m
Data from the previous 72 hours. | See also: Recent months at Mornington Island Airport
Date/Time
EST
Temp
°C
Wind Pressure Rain since
9am
mm
Weather Cloud Vis
km
Sea
Height
m
Swell
Dir  Spd
kts
Gust
kts
hPa Trend Height
m
Period
s
Dir
30/07:30am 18.9 SSE 11 17 1015.6 - 0.0 - - - - - - -
30/07:00am 18.8 SSE 11 16 1015.5 - 0.0 - - - - - - -
30/06:30am 19.3 SSE 11 20 1015.4 - 0.0 - - - - - - -
30/06:00am 19.3 SE 9 14 1015.0 - 0.0 - - - - - - -
30/05:30am 19.8 SE 11 17 1014.8 - 0.0 - - - - - - -
30/05:00am 19.9 SE 11 18 1014.6 - 0.0 - - - - - - -
30/04:30am 19.7 SE 10 17 1014.8 - 0.0 - - - - - - -
30/04:00am 20.1 SE 11 16 1014.6 - 0.0 - - - - - - -
30/03:30am 20.2 SSE 10 16 1014.8 - 0.0 - - - - - - -
30/03:00am 20.3 SSE 9 15 1014.7 - 0.0 - - - - - - -
30/02:30am 20.4 SSE 9 15 1014.8 - 0.0 - - - - - - -
30/02:00am 20.4 SSE 8 12 1015.1 - 0.0 - - - - - - -
30/01:30am 20.7 SSE 8 12 1015.4 - 0.0 - - - - - - -
30/01:00am 20.7 SSE 7 11 1015.6 - 0.0 - - - - - - -
30/12:30am 20.9 SSE 8 12 1015.7 - 0.0 - - - - - - -
30/12:00am 20.0 SSE 7 10 1015.9 - 0.0 - - - - - - -
 
Date/Time
EST
Temp
°C
Wind Pressure Rain since
9am
mm
Weather Cloud Vis
km
Sea
Height
m
Swell
Dir  Spd
kts
Gust
kts
hPa Trend Height
m
Period
s
Dir
29/11:30pm 18.6 SSE 5 7 1016.0 - 0.0 - - - - - - -
29/11:00pm 18.5 SSE 5 8 1016.2 - 0.0 - - - - - - -
29/10:30pm 18.3 SSE 5 7 1016.1 - 0.0 - - - - - - -
29/10:00pm 14.2 SSE 5 7 1015.9 - 0.0 - - - - - - -
29/09:30pm 15.3 SSE 4 5 1016.0 - 0.0 - - - - - - -
29/09:00pm 15.8 ENE 3 5 1015.8 - 0.0 - - - - - - -
29/08:30pm 16.1 NE 4 5 1015.6 - 0.0 - - - - - - -
29/08:00pm 16.8 ESE 4 4 1015.2 - 0.0 - - - - - - -
29/07:30pm 18.4 ESE 4 4 1014.9 - 0.0 - - - - - - -
29/07:00pm 20.1 ESE 5 6 1014.6 - 0.0 - - - - - - -
29/06:30pm 22.0 ESE 6 8 1014.3 - 0.0 - - - - - - -
29/06:00pm 23.7 SE 7 9 1014.1 - 0.0 - - - - - - -
29/05:30pm 24.7 SE 8 11 1014.1 - 0.0 - - - - - - -
29/05:00pm 25.2 SE 8 11 1014.2 - 0.0 - - - - - - -
29/04:30pm 25.5 SE 8 14 1014.2 - 0.0 - - - - - - -
29/04:00pm 25.2 SE 9 15 1014.3 - 0.0 - - - - - - -
29/03:30pm 24.8 SE 11 16 1014.5 - 0.0 - - - - - - -
29/03:00pm 24.3 SE 11 18 1014.7 - 0.0 - - - - - - -
29/02:30pm 23.8 SE 11 17 1015.1 - 0.0 - - - - - - -
29/02:00pm 23.4 SE 12 18 1015.5 - 0.0 - - - - - - -
29/01:30pm 22.6 SSE 13 19 1016.0 - 0.0 - - - - - - -
29/01:00pm 22.7 SSE 13 21 1016.5 - 0.0 - - - - - - -
29/12:30pm 22.7 SE 12 19 1016.7 - 0.0 - - - - - - -
29/12:00pm 22.4 SE 14 22 1017.2 - 0.0 - - - - - - -
29/11:30am 22.3 SE 15 22 1017.6 - 0.0 - - - - - - -
29/11:00am 22.3 SE 15 23 1017.9 - 0.0 - - - - - - -
29/10:30am 21.6 SE 17 24 1018.1 - 0.0 - - - - - - -
29/10:12am 21.4 SE 15 25 1018.3 - 0.0 - - - - - - -
29/10:00am 21.2 SE 16 24 1018.1 - 0.0 - - - - - - -
29/09:30am 21.2 SE 15 22 1017.9 - 0.0 - - - - - - -
29/09:02am 21.0 SE 15 25 1017.6 - 0.0 - - - - - - -
29/09:00am 20.9 SE 16 25 1017.6 - 0.0 - - - - - - -
29/08:30am 20.3 SE 14 24 1017.3 - 0.0 - - - - - - -
29/08:00am 19.8 SE 15 24 1017.2 - 0.0 - - - - - - -
29/07:30am 19.4 SE 13 22 1016.9 - 0.0 - - - - - - -
29/07:00am 19.3 SE 15 24 1016.6 - 0.0 - - - - - - -
29/06:30am 19.4 SE 17 27 1016.5 - 0.0 - - - - - - -
29/06:00am 19.4 SE 15 25 1016.4 - 0.0 - - - - - - -
29/05:30am 19.5 SE 14 25 1016.3 - 0.0 - - - - - - -
29/05:00am 19.4 SE 13 24 1016.3 - 0.0 - - - - - - -
29/04:37am 19.6 SSE 15 25 1016.2 - 0.0 - - - - - - -
29/04:30am 19.6 SSE 14 25 1016.2 - 0.0 - - - - - - -
29/04:13am 19.8 SSE 15 25 1016.2 - 0.0 - - - - - - -
29/04:00am 19.6 SSE 13 26 1016.3 - 0.0 - - - - - - -
29/03:30am 20.0 SSE 14 24 1016.3 - 0.0 - - - - - - -
29/03:00am 20.4 SSE 15 27 1016.4 - 0.0 - - - - - - -
29/02:30am 20.5 SSE 12 21 1016.6 - 0.0 - - - - - - -
29/02:00am 20.7 SSE 12 19 1016.7 - 0.0 - - - - - - -
29/01:30am 20.9 SSE 13 19 1017.0 - 0.0 - - - - - - -
29/01:00am 20.9 SSE 11 18 1017.3 - 0.0 - - - - - - -
29/12:30am 21.1 SSE 10 16 1017.4 - 0.0 - - - - - - -
29/12:00am 21.8 SSE 12 18 1017.4 - 0.0 - - - - - - -
 
Date/Time
EST
Temp
°C
Wind Pressure Rain since
9am
mm
Weather Cloud Vis
km
Sea
Height
m
Swell
Dir  Spd
kts
Gust
kts
hPa Trend Height
m
Period
s
Dir
28/11:30pm 22.1 SSE 11 17 1017.4 - 0.0 - - - - - - -
28/11:00pm 22.3 SSE 11 17 1017.5 - 0.0 - - - - - - -
28/10:30pm 22.4 SSE 10 17 1017.4 - 0.0 - - - - - - -
28/10:00pm 22.7 SSE 11 16 1017.3 - 0.0 - - - - - - -
28/09:30pm 22.5 SSE 9 14 1017.2 - 0.0 - - - - - - -
28/09:00pm 21.6 SSE 6 9 1017.2 - 0.0 - - - - - - -
28/08:30pm 20.9 SSE 6 8 1016.9 - 0.0 - - - - - - -
28/08:00pm 21.3 SSE 6 9 1016.7 - 0.0 - - - - - - -
28/07:30pm 21.4 SE 5 10 1016.3 - 0.0 - - - - - - -
28/07:00pm 21.6 SE 4 5 1016.1 - 0.0 - - - - - - -
28/06:30pm 23.0 SE 6 8 1015.6 - 0.0 - - - - - - -
28/06:00pm 24.2 SE 7 10 1015.4 - 0.0 - - - - - - -
28/05:30pm 25.0 SE 8 11 1015.2 - 0.0 - - - - - - -
28/05:00pm 25.2 SE 9 14 1015.1 - 0.0 - - - - - - -
28/04:30pm 25.2 SE 12 18 1015.0 - 0.0 - - - - - - -
28/04:00pm 25.2 SSE 11 18 1015.1 - 0.0 - - - - - - -
28/03:30pm 24.8 SSE 11 16 1015.2 - 0.0 - - - - - - -
28/03:00pm 24.4 SSE 12 19 1015.5 - 0.0 - - - - - - -
28/02:30pm 24.3 SSE 13 20 1015.8 - 0.0 - - - - - - -
28/02:00pm 24.2 SSE 13 21 1016.3 - 0.0 - - - - - - -
28/01:30pm 23.8 SSE 13 21 1016.8 - 0.0 - - - - - - -
28/01:00pm 24.0 SE 15 26 1017.4 - 0.0 - - - - - - -
28/12:57pm 23.4 SE 16 26 1017.4 - 0.0 - - - - - - -
28/12:30pm 23.2 SE 14 23 1018.0 - 0.0 - - - - - - -
28/12:00pm 22.8 SE 16 24 1018.5 - 0.0 - - - - - - -
28/11:30am 22.7 SE 14 24 1018.9 - 0.0 - - - - - - -
28/11:00am 22.3 SSE 14 25 1019.3 - 0.0 - - - - - - -
28/10:34am 21.8 SE 15 25 1019.6 - 0.0 - - - - - - -
28/10:30am 22.0 SE 17 25 1019.6 - 0.0 - - - - - - -
28/10:01am 21.5 SE 17 27 1019.9 - 0.0 - - - - - - -
28/10:00am 21.6 SE 18 27 1019.9 - 0.0 - - - - - - -
28/09:30am 21.5 SE 17 28 1019.8 - 0.0 - - - - - - -
28/09:24am 21.3 SE 17 28 1019.7 - 0.0 - - - - - - -
28/09:00am 20.8 SE 19 27 1019.4 - 0.0 - - - - - - -
28/08:35am 20.6 SE 16 30 1019.2 - 0.0 - - - - - - -
28/08:30am 20.5 SSE 16 24 1019.2 - 0.0 - - - - - - -
28/08:00am 20.1 SE 15 27 1019.0 - 0.0 - - - - - - -
28/07:55am 19.9 SSE 15 27 1018.9 - 0.0 - - - - - - -
28/07:30am 19.5 SSE 14 21 1018.7 - 0.0 - - - - - - -
28/07:00am 19.5 SSE 13 23 1018.7 - 0.0 - - - - - - -
28/06:30am 19.5 SSE 13 22 1018.5 - 0.0 - - - - - - -
28/06:00am 19.6 SSE 14 24 1018.1 - 0.0 - - - - - - -
28/05:30am 19.5 SSE 12 21 1018.0 - 0.0 - - - - - - -
28/05:00am 19.9 SSE 13 18 1018.3 - 0.0 - - - - - - -
28/04:30am 20.1 SSE 12 19 1018.1 - 0.0 - - - - - - -
28/04:00am 20.3 SSE 14 23 1017.9 - 0.0 - - - - - - -
28/03:30am 20.4 SSE 13 23 1017.8 - 0.0 - - - - - - -
28/03:09am 20.6 SSE 15 25 1017.7 - 0.0 - - - - - - -
28/03:00am 20.6 SSE 15 24 1017.6 - 0.0 - - - - - - -
28/02:30am 20.9 SSE 15 26 1017.6 - 0.0 - - - - - - -
28/02:20am 21.0 SSE 15 27 1017.6 - 0.0 - - - - - - -
28/02:00am 21.0 SSE 13 21 1017.6 - 0.0 - - - - - - -
28/01:35am 21.3 SSE 15 26 1017.9 - 0.0 - - - - - - -
28/01:30am 21.3 SSE 14 24 1018.0 - 0.0 - - - - - - -
28/01:00am 21.4 SSE 12 20 1017.9 - 0.0 - - - - - - -
28/12:30am 21.9 SSE 13 21 1017.9 - 0.0 - - - - - - -
28/12:00am 22.2 SSE 14 24 1017.9 - 0.0 - - - - - - -
 
Date/Time
EST
Temp
°C
Wind Pressure Rain since
9am
mm
Weather Cloud Vis
km
Sea
Height
m
Swell
Dir  Spd
kts
Gust
kts
hPa Trend Height
m
Period
s
Dir
27/11:30pm 21.9 SSE 11 17 1018.3 - 0.0 - - - - - - -
27/11:00pm 22.2 SSE 11 19 1018.3 - 0.0 - - - - - - -
27/10:30pm 22.6 SSE 12 19 1018.3 - 0.0 - - - - - - -
27/10:00pm 22.8 SSE 12 18 1018.0 - 0.0 - - - - - - -
27/09:30pm 22.9 SSE 11 19 1017.9 - 0.0 - - - - - - -
27/09:00pm 23.1 SSE 10 17 1017.8 - 0.0 - - - - - - -
27/08:30pm 21.3 SSE 6 9 1017.5 - 0.0 - - - - - - -
27/08:00pm 21.2 SSE 6 8 1017.3 - 0.0 - - - - - - -
27/07:30pm 21.3 SSE 5 6 1017.1 - 0.0 - - - - - - -
27/07:00pm 21.9 SSE 5 7 1016.6 - 0.0 - - - - - - -
27/06:30pm 22.6 SSE 6 8 1016.3 - 0.0 - - - - - - -
27/06:00pm 23.6 SE 6 11 1016.2 - 0.0 - - - - - - -
27/05:30pm 24.5 SSE 9 13 1016.0 - 0.0 - - - - - - -
27/05:00pm 25.0 SSE 10 15 1015.7 - 0.0 - - - - - - -
27/04:30pm 25.2 SSE 11 17 1015.6 - 0.0 - - - - - - -
27/04:00pm 25.6 SSE 11 19 1015.6 - 0.0 - - - - - - -
27/03:30pm 25.8 SE 11 18 1015.7 - 0.0 - - - - - - -
27/03:00pm 25.3 SSE 12 20 1015.9 - 0.0 - - - - - - -
27/02:30pm 24.5 SSE 13 20 1016.2 - 0.0 - - - - - - -
27/02:00pm 24.5 SSE 14 21 1016.6 - 0.0 - - - - - - -
27/01:30pm 23.9 SE 14 22 1017.1 - 0.0 - - - - - - -
27/01:00pm 23.7 SE 11 21 1017.6 - 0.0 - - - - - - -
27/12:30pm 23.0 SSE 11 19 1018.0 - 0.0 - - - - - - -
27/12:00pm 21.9 SSE 14 22 1018.5 - 0.0 - - - - - - -
27/11:30am 21.7 SSE 12 22 1018.8 - 0.0 - - - - - - -
27/11:00am 21.6 SSE 13 22 1018.9 - 0.0 - - - - - - -
27/10:30am 20.9 SSE 13 24 1019.0 - 0.0 - - - - - - -
27/10:00am 20.7 SSE 14 22 1019.1 - 0.0 - - - - - - -
27/09:30am 20.6 SE 13 23 1019.0 - 0.0 - - - - - - -
27/09:00am 20.0 SSE 14 22 1018.9 - 0.0 - - - - - - -
27/08:30am 19.8 SSE 14 25 1018.5 - 0.0 - - - - - - -
27/08:00am 19.6 SSE 14 22 1018.0 - 0.0 - - - - - - -

Other Formats:

Comma delimited format used in spreadsheet applications
http://www.bom.gov.au/fwo/IDQ60701/IDQ60701.94254.axf

JavaScript Object Notation format (JSON) in row-major order
http://www.bom.gov.au/fwo/IDQ60701/IDQ60701.94254.json